Wetterdaten: Samstag, 29.08.2015
Datum Zeit Temp. A. Feuchte A. Luftdruck Regen Wind Richtung Richtung Sonnenschein ET UV Solar Taupunkt Windchill Windben Empfang
29.08.2015 00:02 19,5 C 69 % 1020,7 hPa 0,0 l/m 0,0 km/h (0 Bft) NO 48 0 min 0,000 mm 0,0 UV-I 0 W/m 13,7 C 19,5 C 0,0 km/h (0 Bft) 0,00 %
29.08.2015 00:07 19,3 C 70 % 1020,7 hPa 0,0 l/m 0,0 km/h (0 Bft) NO 46 0 min 0,000 mm 0,0 UV-I 0 W/m 13,7 C 19,3 C 0,0 km/h (0 Bft) 0,00 %
29.08.2015 00:12 19,2 C 70 % 1020,7 hPa 0,0 l/m 0,0 km/h (0 Bft) NO 50 0 min 0,000 mm 0,0 UV-I 0 W/m 13,6 C 19,2 C 0,0 km/h (0 Bft) 0,00 %
29.08.2015 00:17 19,1 C 71 % 1020,7 hPa 0,0 l/m 0,0 km/h (0 Bft) NO 43 0 min 0,000 mm 0,0 UV-I 0 W/m 13,7 C 19,1 C 0,0 km/h (0 Bft) 0,00 %
29.08.2015 00:22 19,0 C 72 % 1020,9 hPa 0,0 l/m 0,0 km/h (0 Bft) NO 42 0 min 0,000 mm 0,0 UV-I 0 W/m 13,8 C 19,0 C 0,0 km/h (0 Bft) 0,00 %
29.08.2015 00:27 18,9 C 71 % 1020,9 hPa 0,0 l/m 0,0 km/h (0 Bft) N-NO 13 0 min 0,000 mm 0,0 UV-I 0 W/m 13,5 C 18,9 C 0,0 km/h (0 Bft) 0,00 %
29.08.2015 00:32 19,0 C 70 % 1020,9 hPa 0,0 l/m 0,0 km/h (0 Bft) N-NO 32 0 min 0,000 mm 0,0 UV-I 0 W/m 13,4 C 19,0 C 0,0 km/h (0 Bft) 0,00 %
29.08.2015 00:37 19,1 C 70 % 1020,9 hPa 0,0 l/m 0,0 km/h (0 Bft) NO 36 0 min 0,000 mm 0,0 UV-I 0 W/m 13,5 C 19,1 C 0,0 km/h (0 Bft) 0,00 %
29.08.2015 00:42 19,1 C 70 % 1021,0 hPa 0,0 l/m 0,0 km/h (0 Bft) NO 42 0 min 0,000 mm 0,0 UV-I 0 W/m 13,5 C 19,1 C 0,0 km/h (0 Bft) 0,00 %
29.08.2015 00:47 19,1 C 72 % 1021,2 hPa 0,0 l/m 0,0 km/h (0 Bft) NO 41 0 min 0,000 mm 0,0 UV-I 0 W/m 13,9 C 19,1 C 0,0 km/h (0 Bft) 0,00 %
29.08.2015 00:52 18,9 C 72 % 1021,0 hPa 0,0 l/m 0,0 km/h (0 Bft) NO 45 0 min 0,000 mm 0,0 UV-I 0 W/m 13,7 C 18,9 C 0,0 km/h (0 Bft) 0,00 %
29.08.2015 00:57 18,7 C 73 % 1021,1 hPa 0,0 l/m 0,0 km/h (0 Bft) O-NO 64 0 min 0,000 mm 0,0 UV-I 0 W/m 13,8 C 18,7 C 0,0 km/h (0 Bft) 0,00 %
29.08.2015 01:02 18,5 C 73 % 1021,0 hPa 0,0 l/m 0,0 km/h (0 Bft) O-NO 76 0 min 0,000 mm 0,0 UV-I 0 W/m 13,6 C 18,5 C 0,0 km/h (0 Bft) 0,00 %
29.08.2015 01:07 18,5 C 73 % 1021,0 hPa 0,0 l/m 0,0 km/h (0 Bft) O-NO 76 0 min 0,000 mm 0,0 UV-I 0 W/m 13,6 C 18,5 C 0,0 km/h (0 Bft) 0,00 %
29.08.2015 01:12 18,4 C 74 % 1021,1 hPa 0,0 l/m 0,0 km/h (0 Bft) O-NO 76 0 min 0,000 mm 0,0 UV-I 0 W/m 13,7 C 18,4 C 0,0 km/h (0 Bft) 0,00 %
29.08.2015 01:17 18,4 C 74 % 1021,0 hPa 0,0 l/m 0,0 km/h (0 Bft) O-NO 76 0 min 0,000 mm 0,0 UV-I 0 W/m 13,7 C 18,4 C 0,0 km/h (0 Bft) 0,00 %
29.08.2015 01:22 18,3 C 74 % 1021,2 hPa 0,0 l/m 0,0 km/h (0 Bft) O-NO 72 0 min 0,000 mm 0,0 UV-I 0 W/m 13,6 C 18,3 C 0,0 km/h (0 Bft) 0,00 %
29.08.2015 01:27 18,2 C 76 % 1021,1 hPa 0,0 l/m 0,0 km/h (0 Bft) NO 36 0 min 0,000 mm 0,0 UV-I 0 W/m 13,9 C 18,2 C 0,0 km/h (0 Bft) 0,00 %
29.08.2015 01:32 18,1 C 77 % 1021,0 hPa 0,0 l/m 0,0 km/h (0 Bft) NO 36 0 min 0,000 mm 0,0 UV-I 0 W/m 14,0 C 18,1 C 0,0 km/h (0 Bft) 0,00 %
29.08.2015 01:37 17,9 C 77 % 1021,2 hPa 0,0 l/m 0,0 km/h (0 Bft) NO 36 0 min 0,000 mm 0,0 UV-I 0 W/m 13,8 C 17,9 C 0,0 km/h (0 Bft) 0,00 %
29.08.2015 01:42 17,7 C 78 % 1021,1 hPa 0,0 l/m 0,0 km/h (0 Bft) O-NO 70 0 min 0,000 mm 0,0 UV-I 0 W/m 13,8 C 17,7 C 0,0 km/h (0 Bft) 0,00 %
29.08.2015 01:47 17,5 C 79 % 1021,2 hPa 0,0 l/m 0,0 km/h (0 Bft) O-NO 71 0 min 0,000 mm 0,0 UV-I 0 W/m 13,8 C 17,5 C 0,0 km/h (0 Bft) 0,00 %
29.08.2015 01:52 17,3 C 79 % 1021,3 hPa 0,0 l/m 0,0 km/h (0 Bft) O-NO 72 0 min 0,000 mm 0,0 UV-I 0 W/m 13,6 C 17,3 C 0,0 km/h (0 Bft) 0,00 %
29.08.2015 01:57 17,2 C 80 % 1021,2 hPa 0,0 l/m 0,0 km/h (0 Bft) O-NO 58 0 min 0,000 mm 0,0 UV-I 0 W/m 13,7 C 17,2 C 0,0 km/h (0 Bft) 0,00 %
29.08.2015 02:02 17,2 C 80 % 1021,3 hPa 0,0 l/m 0,0 km/h (0 Bft) O-NO 58 0 min 0,000 mm 0,0 UV-I 0 W/m 13,7 C 17,2 C 0,0 km/h (0 Bft) 0,00 %
29.08.2015 02:07 17,1 C 80 % 1021,4 hPa 0,0 l/m 0,0 km/h (0 Bft) O-NO 58 0 min 0,000 mm 0,0 UV-I 0 W/m 13,6 C 17,1 C 0,0 km/h (0 Bft) 0,00 %
29.08.2015 02:12 17,1 C 79 % 1021,3 hPa 0,0 l/m 0,0 km/h (0 Bft) O-NO 58 0 min 0,000 mm 0,0 UV-I 0 W/m 13,4 C 17,1 C 0,0 km/h (0 Bft) 0,00 %
29.08.2015 02:17 17,0 C 80 % 1021,4 hPa 0,0 l/m 0,0 km/h (0 Bft) O-NO 58 0 min 0,000 mm 0,0 UV-I 0 W/m 13,5 C 17,0 C 0,0 km/h (0 Bft) 0,00 %
29.08.2015 02:22 17,0 C 80 % 1021,2 hPa 0,0 l/m 0,0 km/h (0 Bft) O-NO 58 0 min 0,000 mm 0,0 UV-I 0 W/m 13,5 C 17,0 C 0,0 km/h (0 Bft) 0,00 %
29.08.2015 02:27 16,9 C 80 % 1021,5 hPa 0,0 l/m 0,0 km/h (0 Bft) O-NO 58 0 min 0,000 mm 0,0 UV-I 0 W/m 13,4 C 16,9 C 0,0 km/h (0 Bft) 0,00 %
29.08.2015 02:32 16,8 C 80 % 1021,5 hPa 0,0 l/m 0,0 km/h (0 Bft) O-NO 58 0 min 0,000 mm 0,0 UV-I 0 W/m 13,3 C 16,8 C 0,0 km/h (0 Bft) 0,00 %
29.08.2015 02:37 16,8 C 80 % 1021,4 hPa 0,0 l/m 0,0 km/h (0 Bft) NO 56 0 min 0,000 mm 0,0 UV-I 0 W/m 13,3 C 16,8 C 0,0 km/h (0 Bft) 0,00 %
29.08.2015 02:42 16,7 C 80 % 1021,4 hPa 0,0 l/m 0,0 km/h (0 Bft) NO 56 0 min 0,000 mm 0,0 UV-I 0 W/m 13,2 C 16,7 C 0,0 km/h (0 Bft) 0,00 %
29.08.2015 02:47 16,7 C 80 % 1021,4 hPa 0,0 l/m 0,0 km/h (0 Bft) NO 56 0 min 0,000 mm 0,0 UV-I 0 W/m 13,2 C 16,7 C 0,0 km/h (0 Bft) 0,00 %
29.08.2015 02:52 16,7 C 80 % 1021,4 hPa 0,0 l/m 0,0 km/h (0 Bft) NO 56 0 min 0,000 mm 0,0 UV-I 0 W/m 13,2 C 16,7 C 0,0 km/h (0 Bft) 0,00 %
29.08.2015 02:57 16,6 C 81 % 1021,5 hPa 0,0 l/m 0,0 km/h (0 Bft) NO 56 0 min 0,000 mm 0,0 UV-I 0 W/m 13,3 C 16,6 C 0,0 km/h (0 Bft) 0,00 %
29.08.2015 03:02 16,5 C 81 % 1021,5 hPa 0,0 l/m 0,0 km/h (0 Bft) NO 56 0 min 0,000 mm 0,0 UV-I 0 W/m 13,2 C 16,5 C 0,0 km/h (0 Bft) 0,00 %
29.08.2015 03:07 16,5 C 82 % 1021,7 hPa 0,0 l/m 0,0 km/h (0 Bft) NO 56 0 min 0,000 mm 0,0 UV-I 0 W/m 13,4 C 16,5 C 0,0 km/h (0 Bft) 0,00 %
29.08.2015 03:12 16,4 C 82 % 1021,4 hPa 0,0 l/m 0,0 km/h (0 Bft) NO 56 0 min 0,000 mm 0,0 UV-I 0 W/m 13,3 C 16,4 C 0,0 km/h (0 Bft) 0,00 %
29.08.2015 03:17 16,3 C 82 % 1021,7 hPa 0,0 l/m 0,0 km/h (0 Bft) NO 56 0 min 0,000 mm 0,0 UV-I 0 W/m 13,2 C 16,3 C 0,0 km/h (0 Bft) 0,00 %
29.08.2015 03:22 16,3 C 83 % 1021,6 hPa 0,0 l/m 0,0 km/h (0 Bft) NO 56 0 min 0,000 mm 0,0 UV-I 0 W/m 13,4 C 16,3 C 0,0 km/h (0 Bft) 0,00 %
29.08.2015 03:27 16,2 C 83 % 1021,5 hPa 0,0 l/m 0,0 km/h (0 Bft) NO 56 0 min 0,000 mm 0,0 UV-I 0 W/m 13,3 C 16,2 C 0,0 km/h (0 Bft) 0,00 %
29.08.2015 03:32 16,1 C 83 % 1021,7 hPa 0,0 l/m 0,0 km/h (0 Bft) NO 56 0 min 0,000 mm 0,0 UV-I 0 W/m 13,2 C 16,1 C 0,0 km/h (0 Bft) 0,00 %
29.08.2015 03:37 16,1 C 83 % 1021,8 hPa 0,0 l/m 0,0 km/h (0 Bft) NO 56 0 min 0,000 mm 0,0 UV-I 0 W/m 13,2 C 16,1 C 0,0 km/h (0 Bft) 0,00 %
29.08.2015 03:42 16,1 C 83 % 1021,6 hPa 0,0 l/m 0,0 km/h (0 Bft) NO 56 0 min 0,000 mm 0,0 UV-I 0 W/m 13,2 C 16,1 C 0,0 km/h (0 Bft) 0,00 %
29.08.2015 03:47 16,1 C 83 % 1021,9 hPa 0,0 l/m 0,0 km/h (0 Bft) NO 56 0 min 0,000 mm 0,0 UV-I 0 W/m 13,2 C 16,1 C 0,0 km/h (0 Bft) 0,00 %
29.08.2015 03:52 16,1 C 82 % 1021,8 hPa 0,0 l/m 0,0 km/h (0 Bft) NO 56 0 min 0,000 mm 0,0 UV-I 0 W/m 13,0 C 16,1 C 0,0 km/h (0 Bft) 0,00 %
29.08.2015 03:57 16,1 C 82 % 1021,7 hPa 0,0 l/m 0,0 km/h (0 Bft) N-NO 21 0 min 0,000 mm 0,0 UV-I 0 W/m 13,0 C 16,1 C 0,0 km/h (0 Bft) 0,00 %
29.08.2015 04:02 16,1 C 82 % 1022,0 hPa 0,0 l/m 0,0 km/h (0 Bft) N-NW 340 0 min 0,000 mm 0,0 UV-I 0 W/m 13,0 C 16,1 C 0,0 km/h (0 Bft) 0,00 %
29.08.2015 04:07 16,1 C 82 % 1021,9 hPa 0,0 l/m 0,0 km/h (0 Bft) N 9 0 min 0,000 mm 0,0 UV-I 0 W/m 13,0 C 16,1 C 0,0 km/h (0 Bft) 0,00 %
29.08.2015 04:12 16,1 C 83 % 1021,8 hPa 0,0 l/m 0,0 km/h (0 Bft) NO 46 0 min 0,000 mm 0,0 UV-I 0 W/m 13,2 C 16,1 C 0,0 km/h (0 Bft) 0,00 %
29.08.2015 04:17 16,0 C 83 % 1021,9 hPa 0,0 l/m 0,0 km/h (0 Bft) NO 42 0 min 0,000 mm 0,0 UV-I 0 W/m 13,1 C 16,0 C 0,0 km/h (0 Bft) 0,00 %
29.08.2015 04:22 16,0 C 83 % 1022,0 hPa 0,0 l/m 0,0 km/h (0 Bft) NO 45 0 min 0,000 mm 0,0 UV-I 0 W/m 13,1 C 16,0 C 0,0 km/h (0 Bft) 0,00 %
29.08.2015 04:27 16,1 C 83 % 1021,9 hPa 0,0 l/m 0,0 km/h (0 Bft) NO 46 0 min 0,000 mm 0,0 UV-I 0 W/m 13,2 C 16,1 C 0,0 km/h (0 Bft) 0,00 %
29.08.2015 04:32 16,1 C 83 % 1022,0 hPa 0,0 l/m 0,0 km/h (0 Bft) O-NO 71 0 min 0,000 mm 0,0 UV-I 0 W/m 13,2 C 16,1 C 0,0 km/h (0 Bft) 0,00 %
29.08.2015 04:37 16,1 C 82 % 1022,0 hPa 0,0 l/m 0,0 km/h (0 Bft) NO 39 0 min 0,000 mm 0,0 UV-I 0 W/m 13,0 C 16,1 C 0,0 km/h (0 Bft) 0,00 %
29.08.2015 04:42 16,1 C 83 % 1022,2 hPa 0,0 l/m 0,0 km/h (0 Bft) NO 46 0 min 0,000 mm 0,0 UV-I 0 W/m 13,2 C 16,1 C 0,0 km/h (0 Bft) 0,00 %
29.08.2015 04:47 16,0 C 84 % 1022,1 hPa 0,0 l/m 0,0 km/h (0 Bft) NO 47 0 min 0,000 mm 0,0 UV-I 0 W/m 13,3 C 16,0 C 0,0 km/h (0 Bft) 0,00 %
29.08.2015 04:52 15,8 C 84 % 1022,2 hPa 0,0 l/m 0,0 km/h (0 Bft) W 272 0 min 0,000 mm 0,0 UV-I 0 W/m 13,1 C 15,8 C 0,0 km/h (0 Bft) 0,00 %
29.08.2015 04:57 15,7 C 85 % 1022,2 hPa 0,0 l/m 0,0 km/h (0 Bft) NO 34 0 min 0,000 mm 0,0 UV-I 0 W/m 13,2 C 15,7 C 0,0 km/h (0 Bft) 0,00 %
29.08.2015 05:02 15,6 C 85 % 1022,3 hPa 0,0 l/m 0,0 km/h (0 Bft) N-NO 29 0 min 0,000 mm 0,0 UV-I 0 W/m 13,1 C 15,6 C 0,0 km/h (0 Bft) 0,00 %
29.08.2015 05:07 15,5 C 85 % 1022,3 hPa 0,0 l/m 0,0 km/h (0 Bft) NO 46 0 min 0,000 mm 0,0 UV-I 0 W/m 13,0 C 15,5 C 0,0 km/h (0 Bft) 0,00 %
29.08.2015 05:12 15,4 C 86 % 1022,3 hPa 0,0 l/m 0,0 km/h (0 Bft) O-NO 73 0 min 0,000 mm 0,0 UV-I 0 W/m 13,1 C 15,4 C 0,0 km/h (0 Bft) 0,00 %
29.08.2015 05:17 15,3 C 87 % 1022,3 hPa 0,0 l/m 0,0 km/h (0 Bft) O-NO 69 0 min 0,000 mm 0,0 UV-I 0 W/m 13,1 C 15,3 C 0,0 km/h (0 Bft) 0,00 %
29.08.2015 05:22 15,3 C 87 % 1022,3 hPa 0,0 l/m 0,0 km/h (0 Bft) NO 44 0 min 0,000 mm 0,0 UV-I 0 W/m 13,1 C 15,3 C 0,0 km/h (0 Bft) 0,00 %
29.08.2015 05:27 15,3 C 87 % 1022,2 hPa 0,0 l/m 0,0 km/h (0 Bft) NO 48 0 min 0,000 mm 0,0 UV-I 0 W/m 13,1 C 15,3 C 0,0 km/h (0 Bft) 0,00 %
29.08.2015 05:32 15,4 C 87 % 1022,4 hPa 0,0 l/m 0,0 km/h (0 Bft) NO 50 0 min 0,000 mm 0,0 UV-I 0 W/m 13,2 C 15,4 C 0,0 km/h (0 Bft) 0,00 %
29.08.2015 05:37 15,3 C 87 % 1022,5 hPa 0,0 l/m 0,0 km/h (0 Bft) NO 48 0 min 0,000 mm 0,0 UV-I 0 W/m 13,1 C 15,3 C 0,0 km/h (0 Bft) 0,00 %
29.08.2015 05:42 15,3 C 86 % 1022,5 hPa 0,0 l/m 0,0 km/h (0 Bft) NO 49 0 min 0,000 mm 0,0 UV-I 0 W/m 13,0 C 15,3 C 0,0 km/h (0 Bft) 0,00 %
29.08.2015 05:47 15,2 C 87 % 1022,5 hPa 0,0 l/m 0,0 km/h (0 Bft) NO 50 0 min 0,000 mm 0,0 UV-I 0 W/m 13,0 C 15,2 C 0,0 km/h (0 Bft) 0,00 %
29.08.2015 05:52 15,1 C 87 % 1022,6 hPa 0,0 l/m 0,0 km/h (0 Bft) N-NO 25 0 min 0,000 mm 0,0 UV-I 0 W/m 13,0 C 15,1 C 0,0 km/h (0 Bft) 0,00 %
29.08.2015 05:57 15,1 C 87 % 1022,6 hPa 0,0 l/m 0,0 km/h (0 Bft) NO 45 0 min 0,000 mm 0,0 UV-I 0 W/m 13,0 C 15,1 C 0,0 km/h (0 Bft) 0,00 %
29.08.2015 06:02 15,0 C 87 % 1022,7 hPa 0,0 l/m 0,0 km/h (0 Bft) NO 50 0 min 0,000 mm 0,0 UV-I 0 W/m 12,9 C 15,0 C 0,0 km/h (0 Bft) 0,00 %
29.08.2015 06:07 15,0 C 88 % 1022,7 hPa 0,0 l/m 0,0 km/h (0 Bft) NO 45 0 min 0,000 mm 0,0 UV-I 0 W/m 13,0 C 15,0 C 0,0 km/h (0 Bft) 0,00 %
29.08.2015 06:12 15,0 C 89 % 1022,6 hPa 0,0 l/m 0,0 km/h (0 Bft) NO 46 0 min 0,000 mm 0,0 UV-I 0 W/m 13,2 C 15,0 C 0,0 km/h (0 Bft) 0,00 %
29.08.2015 06:17 15,0 C 89 % 1022,7 hPa 0,0 l/m 0,0 km/h (0 Bft) NO 47 0 min 0,000 mm 0,0 UV-I 0 W/m 13,2 C 15,0 C 0,0 km/h (0 Bft) 0,00 %
29.08.2015 06:22 15,1 C 89 % 1022,9 hPa 0,0 l/m 0,0 km/h (0 Bft) NO 45 0 min 0,000 mm 0,0 UV-I 4 W/m 13,3 C 15,1 C 0,0 km/h (0 Bft) 0,00 %
29.08.2015 06:27 15,1 C 89 % 1023,0 hPa 0,0 l/m 0,0 km/h (0 Bft) NO 44 5 min 0,000 mm 0,0 UV-I 9 W/m 13,3 C 15,1 C 0,0 km/h (0 Bft) 0,00 %
29.08.2015 06:32 15,1 C 89 % 1022,8 hPa 0,0 l/m 0,0 km/h (0 Bft) NO 42 5 min 0,000 mm 0,0 UV-I 20 W/m 13,3 C 15,1 C 0,0 km/h (0 Bft) 0,00 %
29.08.2015 06:37 15,2 C 89 % 1022,9 hPa 0,0 l/m 0,0 km/h (0 Bft) NO 45 5 min 0,000 mm 0,0 UV-I 28 W/m 13,4 C 15,2 C 0,0 km/h (0 Bft) 0,00 %
29.08.2015 06:42 15,3 C 88 % 1023,0 hPa 0,0 l/m 0,0 km/h (0 Bft) NO 43 5 min 0,000 mm 0,0 UV-I 40 W/m 13,3 C 15,3 C 0,0 km/h (0 Bft) 0,00 %
29.08.2015 06:47 15,5 C 87 % 1023,2 hPa 0,0 l/m 0,0 km/h (0 Bft) NO 44 5 min 0,000 mm 0,0 UV-I 55 W/m 13,3 C 15,5 C 0,0 km/h (0 Bft) 0,00 %
29.08.2015 06:52 15,7 C 85 % 1023,0 hPa 0,0 l/m 0,0 km/h (0 Bft) NO 40 5 min 0,000 mm 0,0 UV-I 68 W/m 13,2 C 15,7 C 0,0 km/h (0 Bft) 0,00 %
29.08.2015 06:57 16,0 C 84 % 1023,3 hPa 0,0 l/m 0,0 km/h (0 Bft) NO 47 5 min 0,000 mm 0,0 UV-I 81 W/m 13,3 C 16,0 C 0,0 km/h (0 Bft) 0,00 %
29.08.2015 07:02 16,4 C 82 % 1023,2 hPa 0,0 l/m 0,0 km/h (0 Bft) NO 45 5 min 0,000 mm 0,0 UV-I 90 W/m 13,3 C 16,4 C 0,0 km/h (0 Bft) 0,00 %
29.08.2015 07:07 16,9 C 82 % 1023,2 hPa 0,0 l/m 0,0 km/h (0 Bft) NO 38 5 min 0,000 mm 0,0 UV-I 99 W/m 13,8 C 16,9 C 0,0 km/h (0 Bft) 0,00 %
29.08.2015 07:12 17,4 C 78 % 1023,2 hPa 0,0 l/m 0,0 km/h (0 Bft) NO 34 5 min 0,000 mm 0,0 UV-I 105 W/m 13,5 C 17,4 C 0,0 km/h (0 Bft) 0,00 %
29.08.2015 07:17 17,9 C 75 % 1023,3 hPa 0,0 l/m 0,0 km/h (0 Bft) NO 46 5 min 0,000 mm 0,0 UV-I 110 W/m 13,4 C 17,9 C 0,0 km/h (0 Bft) 0,00 %
29.08.2015 07:22 18,4 C 73 % 1023,3 hPa 0,0 l/m 0,0 km/h (0 Bft) NO 47 5 min 0,000 mm 0,0 UV-I 118 W/m 13,5 C 18,4 C 0,0 km/h (0 Bft) 0,00 %
29.08.2015 07:27 18,9 C 71 % 1023,4 hPa 0,0 l/m 0,0 km/h (0 Bft) NO 42 5 min 0,000 mm 0,0 UV-I 117 W/m 13,5 C 18,9 C 0,0 km/h (0 Bft) 0,00 %
29.08.2015 07:32 19,4 C 69 % 1023,4 hPa 0,0 l/m 0,0 km/h (0 Bft) NO 41 5 min 0,000 mm 0,0 UV-I 115 W/m 13,6 C 19,4 C 0,0 km/h (0 Bft) 0,00 %
29.08.2015 07:37 19,8 C 66 % 1023,7 hPa 0,0 l/m 0,0 km/h (0 Bft) NO 36 0 min 0,000 mm 1,0 UV-I 112 W/m 13,3 C 19,8 C 0,0 km/h (0 Bft) 0,00 %
29.08.2015 07:42 20,1 C 66 % 1023,6 hPa 0,0 l/m 0,0 km/h (0 Bft) NO 39 0 min 0,000 mm 1,0 UV-I 110 W/m 13,5 C 20,1 C 0,0 km/h (0 Bft) 0,00 %
29.08.2015 07:47 20,5 C 65 % 1023,7 hPa 0,0 l/m 0,0 km/h (0 Bft) NO 39 0 min 0,000 mm 1,0 UV-I 114 W/m 13,7 C 20,5 C 0,0 km/h (0 Bft) 0,00 %
29.08.2015 07:52 20,8 C 63 % 1023,9 hPa 0,0 l/m 0,0 km/h (0 Bft) NO 49 0 min 0,000 mm 1,0 UV-I 118 W/m 13,5 C 20,8 C 0,0 km/h (0 Bft) 0,00 %
29.08.2015 07:57 21,2 C 62 % 1023,7 hPa 0,0 l/m 0,0 km/h (0 Bft) NO 49 0 min 0,000 mm 1,0 UV-I 124 W/m 13,6 C 21,2 C 0,0 km/h (0 Bft) 0,00 %
29.08.2015 08:02 21,6 C 62 % 1023,8 hPa 0,0 l/m 0,0 km/h (0 Bft) NO 42 0 min 0,000 mm 1,0 UV-I 129 W/m 14,0 C 21,6 C 0,0 km/h (0 Bft) 0,00 %
29.08.2015 08:07 22,0 C 61 % 1023,8 hPa 0,0 l/m 0,0 km/h (0 Bft) NO 44 0 min 0,000 mm 1,0 UV-I 135 W/m 14,1 C 22,0 C 0,0 km/h (0 Bft) 0,00 %
29.08.2015 08:12 22,5 C 58 % 1023,8 hPa 0,0 l/m 0,0 km/h (0 Bft) N-NO 29 0 min 0,000 mm 1,0 UV-I 141 W/m 13,8 C 22,5 C 0,0 km/h (0 Bft) 0,00 %
29.08.2015 08:17 23,0 C 58 % 1023,9 hPa 0,0 l/m 0,0 km/h (0 Bft) NO 37 0 min 0,000 mm 1,0 UV-I 146 W/m 14,3 C 23,0 C 0,0 km/h (0 Bft) 0,00 %
29.08.2015 08:22 23,4 C 58 % 1024,0 hPa 0,0 l/m 0,0 km/h (0 Bft) NO 45 0 min 0,000 mm 1,0 UV-I 154 W/m 14,7 C 23,4 C 0,0 km/h (0 Bft) 0,00 %
29.08.2015 08:27 23,8 C 57 % 1024,0 hPa 0,0 l/m 0,0 km/h (0 Bft) NO 37 0 min 0,000 mm 1,0 UV-I 162 W/m 14,8 C 23,8 C 0,0 km/h (0 Bft) 0,00 %
29.08.2015 08:32 24,0 C 54 % 1024,2 hPa 0,0 l/m 0,0 km/h (0 Bft) N-NO 31 0 min 0,000 mm 1,0 UV-I 171 W/m 14,1 C 24,0 C 0,0 km/h (0 Bft) 0,00 %
29.08.2015 08:37 24,2 C 54 % 1024,2 hPa 0,0 l/m 0,0 km/h (0 Bft) NO 47 0 min 0,000 mm 1,0 UV-I 180 W/m 14,3 C 24,2 C 0,0 km/h (0 Bft) 0,00 %
29.08.2015 08:42 24,5 C 53 % 1024,2 hPa 0,0 l/m 0,0 km/h (0 Bft) NO 38 0 min 0,000 mm 1,0 UV-I 190 W/m 14,3 C 24,5 C 0,0 km/h (0 Bft) 0,00 %
29.08.2015 08:47 24,8 C 52 % 1024,1 hPa 0,0 l/m 0,0 km/h (0 Bft) N-NO 29 0 min 0,000 mm 1,0 UV-I 199 W/m 14,3 C 24,8 C 0,0 km/h (0 Bft) 0,00 %
29.08.2015 08:52 25,0 C 51 % 1024,2 hPa 0,0 l/m 0,0 km/h (0 Bft) N-NO 19 0 min 0,000 mm 1,0 UV-I 207 W/m 14,1 C 25,0 C 0,0 km/h (0 Bft) 0,00 %
29.08.2015 08:57 25,3 C 51 % 1024,2 hPa 0,0 l/m 0,0 km/h (0 Bft) NO 39 0 min 0,000 mm 1,0 UV-I 216 W/m 14,4 C 25,3 C 0,0 km/h (0 Bft) 0,00 %
29.08.2015 09:02 25,4 C 51 % 1024,1 hPa 0,0 l/m 0,0 km/h (0 Bft) NO 43 0 min 0,000 mm 1,0 UV-I 225 W/m 14,5 C 25,4 C 0,0 km/h (0 Bft) 0,00 %
29.08.2015 09:07 25,7 C 48 % 1024,1 hPa 0,0 l/m 0,0 km/h (0 Bft) NO 34 0 min 0,000 mm 1,0 UV-I 237 W/m 13,9 C 25,7 C 0,0 km/h (0 Bft) 0,00 %
29.08.2015 09:12 26,1 C 48 % 1024,4 hPa 0,0 l/m 0,0 km/h (0 Bft) NO 47 0 min 0,000 mm 1,0 UV-I 249 W/m 14,2 C 26,1 C 0,0 km/h (0 Bft) 0,00 %
29.08.2015 09:17 26,7 C 45 % 1024,3 hPa 0,0 l/m 0,0 km/h (0 Bft) NO 41 0 min 0,000 mm 1,0 UV-I 258 W/m 13,8 C 26,7 C 0,0 km/h (0 Bft) 0,00 %
29.08.2015 09:22 26,9 C 45 % 1024,1 hPa 0,0 l/m 5,8 km/h (2 Bft) O 98 0 min 0,000 mm 1,0 UV-I 268 W/m 13,9 C 26,9 C 7,9 km/h (2 Bft) 0,00 %
29.08.2015 09:27 26,7 C 48 % 1024,4 hPa 0,0 l/m 1,4 km/h (1 Bft) N 11 0 min 0,000 mm 1,0 UV-I 275 W/m 14,8 C 26,7 C 4,0 km/h (1 Bft) 0,00 %
29.08.2015 09:32 26,3 C 48 % 1024,3 hPa 0,0 l/m 0,7 km/h (0 Bft) SO 124 5 min 0,000 mm 1,0 UV-I 286 W/m 14,4 C 26,3 C 4,0 km/h (1 Bft) 0,00 %
29.08.2015 09:37 26,1 C 48 % 1024,3 hPa 0,0 l/m 3,2 km/h (1 Bft) SO 128 5 min 0,000 mm 1,0 UV-I 298 W/m 14,2 C 26,1 C 4,0 km/h (1 Bft) 0,00 %
29.08.2015 09:42 26,3 C 46 % 1024,4 hPa 0,0 l/m 0,0 km/h (0 Bft) O-NO 72 0 min 0,000 mm 1,0 UV-I 183 W/m 13,7 C 26,3 C 0,0 km/h (0 Bft) 0,00 %
29.08.2015 09:47 26,5 C 47 % 1024,3 hPa 0,0 l/m 2,9 km/h (1 Bft) O-NO 68 0 min 0,000 mm 1,0 UV-I 161 W/m 14,3 C 26,5 C 7,9 km/h (2 Bft) 0,00 %
29.08.2015 09:52 26,4 C 48 % 1024,2 hPa 0,0 l/m 0,4 km/h (0 Bft) N-NO 31 0 min 0,000 mm 1,0 UV-I 145 W/m 14,5 C 26,4 C 4,0 km/h (1 Bft) 0,00 %
29.08.2015 09:57 26,1 C 49 % 1024,1 hPa 0,0 l/m 0,0 km/h (0 Bft) O-SO 114 5 min 0,000 mm 2,0 UV-I 338 W/m 14,5 C 26,1 C 0,0 km/h (0 Bft) 0,00 %
29.08.2015 10:02 26,0 C 48 % 1024,2 hPa 0,0 l/m 0,4 km/h (0 Bft) O-SO 115 5 min 0,000 mm 2,0 UV-I 354 W/m 14,1 C 26,0 C 4,0 km/h (1 Bft) 0,00 %
29.08.2015 10:07 26,3 C 46 % 1024,0 hPa 0,0 l/m 4,7 km/h (1 Bft) O 89 5 min 0,000 mm 2,0 UV-I 372 W/m 13,7 C 26,3 C 7,9 km/h (2 Bft) 0,00 %
29.08.2015 10:12 26,7 C 45 % 1024,2 hPa 0,0 l/m 0,0 km/h (0 Bft) O-NO 63 5 min 0,000 mm 2,0 UV-I 388 W/m 13,8 C 26,7 C 0,0 km/h (0 Bft) 0,00 %
29.08.2015 10:17 27,0 C 45 % 1024,1 hPa 0,0 l/m 1,4 km/h (1 Bft) O-SO 102 5 min 0,000 mm 2,0 UV-I 402 W/m 14,0 C 27,0 C 4,0 km/h (1 Bft) 0,00 %
29.08.2015 10:22 27,3 C 45 % 1024,0 hPa 0,0 l/m 0,0 km/h (0 Bft) S 174 5 min 0,000 mm 2,0 UV-I 416 W/m 14,3 C 27,3 C 0,0 km/h (0 Bft) 0,00 %
29.08.2015 10:27 27,6 C 43 % 1023,9 hPa 0,0 l/m 0,0 km/h (0 Bft) O 99 5 min 0,000 mm 2,0 UV-I 432 W/m 13,9 C 27,6 C 0,0 km/h (0 Bft) 0,00 %
29.08.2015 10:32 27,9 C 43 % 1024,0 hPa 0,0 l/m 0,0 km/h (0 Bft) NO 40 5 min 0,000 mm 2,0 UV-I 446 W/m 14,1 C 27,9 C 0,0 km/h (0 Bft) 0,00 %
29.08.2015 10:37 27,9 C 42 % 1024,0 hPa 0,0 l/m 1,4 km/h (1 Bft) O 90 5 min 0,000 mm 2,0 UV-I 461 W/m 13,8 C 27,9 C 4,0 km/h (1 Bft) 0,00 %
29.08.2015 10:42 28,0 C 42 % 1024,1 hPa 0,0 l/m 4,3 km/h (1 Bft) O 100 5 min 0,000 mm 2,0 UV-I 472 W/m 13,9 C 28,0 C 7,9 km/h (2 Bft) 0,00 %
29.08.2015 10:47 28,4 C 42 % 1024,0 hPa 0,0 l/m 0,0 km/h (0 Bft) NO 45 5 min 0,000 mm 2,0 UV-I 487 W/m 14,2 C 28,4 C 0,0 km/h (0 Bft) 0,00 %
29.08.2015 10:52 28,5 C 42 % 1023,9 hPa 0,0 l/m 6,5 km/h (2 Bft) O-NO 72 5 min 0,000 mm 2,0 UV-I 502 W/m 14,3 C 28,5 C 7,9 km/h (2 Bft) 0,00 %
29.08.2015 10:57 28,5 C 41 % 1023,9 hPa 0,0 l/m 1,4 km/h (1 Bft) NO 38 5 min 0,000 mm 2,0 UV-I 519 W/m 13,9 C 28,5 C 4,0 km/h (1 Bft) 0,00 %
29.08.2015 11:02 28,7 C 42 % 1023,8 hPa 0,0 l/m 0,4 km/h (0 Bft) NO 42 5 min 0,000 mm 2,0 UV-I 532 W/m 14,5 C 28,7 C 4,0 km/h (1 Bft) 0,00 %
29.08.2015 11:07 28,8 C 41 % 1024,2 hPa 0,0 l/m 0,0 km/h (0 Bft) NO 52 5 min 0,000 mm 2,0 UV-I 544 W/m 14,2 C 28,8 C 0,0 km/h (0 Bft) 0,00 %
29.08.2015 11:12 29,0 C 41 % 1023,9 hPa 0,0 l/m 0,4 km/h (0 Bft) N-NO 29 5 min 0,000 mm 2,0 UV-I 568 W/m 14,4 C 29,0 C 4,0 km/h (1 Bft) 0,00 %
29.08.2015 11:17 29,2 C 41 % 1023,9 hPa 0,0 l/m 4,3 km/h (1 Bft) S 176 5 min 0,000 mm 2,0 UV-I 587 W/m 14,6 C 29,2 C 7,9 km/h (2 Bft) 0,00 %
29.08.2015 11:22 29,4 C 40 % 1024,0 hPa 0,0 l/m 0,0 km/h (0 Bft) O-NO 72 5 min 0,000 mm 2,0 UV-I 599 W/m 14,4 C 29,4 C 0,0 km/h (0 Bft) 0,00 %
29.08.2015 11:27 29,7 C 40 % 1024,1 hPa 0,0 l/m 0,0 km/h (0 Bft) O 89 5 min 0,000 mm 3,0 UV-I 610 W/m 14,6 C 29,7 C 0,0 km/h (0 Bft) 0,00 %
29.08.2015 11:32 29,8 C 40 % 1023,8 hPa 0,0 l/m 1,8 km/h (1 Bft) O 82 5 min 0,000 mm 3,0 UV-I 626 W/m 14,7 C 29,8 C 4,0 km/h (1 Bft) 0,00 %
29.08.2015 11:38 29,7 C 41 % 1024,0 hPa 0,0 l/m 4,0 km/h (1 Bft) S-SO 165 6 min 0,000 mm 3,0 UV-I 644 W/m 15,0 C 29,7 C 7,9 km/h (2 Bft) 0,00 %
29.08.2015 11:43 29,6 C 41 % 1023,9 hPa 0,0 l/m 0,4 km/h (0 Bft) O 96 5 min 0,000 mm 3,0 UV-I 654 W/m 14,9 C 29,6 C 4,0 km/h (1 Bft) 0,00 %
29.08.2015 11:48 29,6 C 41 % 1023,9 hPa 0,0 l/m 6,5 km/h (2 Bft) O-SO 105 5 min 0,000 mm 3,0 UV-I 675 W/m 14,9 C 29,6 C 7,9 km/h (2 Bft) 0,00 %
29.08.2015 11:53 29,6 C 41 % 1023,9 hPa 0,0 l/m 1,4 km/h (1 Bft) O 84 5 min 0,000 mm 3,0 UV-I 689 W/m 14,9 C 29,6 C 4,0 km/h (1 Bft) 0,00 %
29.08.2015 11:58 29,7 C 41 % 1023,8 hPa 0,0 l/m 0,7 km/h (0 Bft) N-NO 29 5 min 0,000 mm 3,0 UV-I 708 W/m 15,0 C 29,7 C 4,0 km/h (1 Bft) 0,00 %
29.08.2015 12:03 29,8 C 41 % 1023,7 hPa 0,0 l/m 4,3 km/h (1 Bft) S-SO 148 5 min 0,000 mm 3,0 UV-I 722 W/m 15,1 C 29,8 C 7,9 km/h (2 Bft) 0,00 %
29.08.2015 12:08 29,7 C 41 % 1023,7 hPa 0,0 l/m 0,0 km/h (0 Bft) O-NO 65 5 min 0,000 mm 3,0 UV-I 734 W/m 15,0 C 29,7 C 0,0 km/h (0 Bft) 0,00 %
29.08.2015 12:13 29,7 C 41 % 1023,6 hPa 0,0 l/m 0,4 km/h (0 Bft) N-NO 19 5 min 0,000 mm 3,0 UV-I 750 W/m 15,0 C 29,7 C 4,0 km/h (1 Bft) 0,00 %
29.08.2015 12:18 29,9 C 41 % 1023,5 hPa 0,0 l/m 0,0 km/h (0 Bft) O-NO 78 5 min 0,000 mm 3,0 UV-I 752 W/m 15,2 C 29,9 C 0,0 km/h (0 Bft) 0,00 %
29.08.2015 12:23 29,9 C 39 % 1023,4 hPa 0,0 l/m 0,7 km/h (0 Bft) O 95 5 min 0,000 mm 3,0 UV-I 760 W/m 14,4 C 29,9 C 4,0 km/h (1 Bft) 0,00 %
29.08.2015 12:28 30,0 C 40 % 1023,5 hPa 0,0 l/m 4,0 km/h (1 Bft) O-NO 64 5 min 0,000 mm 3,0 UV-I 764 W/m 14,9 C 30,0 C 7,9 km/h (2 Bft) 0,00 %
29.08.2015 12:33 29,9 C 41 % 1023,3 hPa 0,0 l/m 3,2 km/h (1 Bft) O 79 5 min 0,000 mm 3,0 UV-I 768 W/m 15,2 C 29,9 C 7,9 km/h (2 Bft) 0,00 %
29.08.2015 12:38 29,7 C 41 % 1023,4 hPa 0,0 l/m 3,2 km/h (1 Bft) SO 136 5 min 0,000 mm 3,0 UV-I 769 W/m 15,0 C 29,7 C 4,0 km/h (1 Bft) 0,00 %
29.08.2015 12:43 29,6 C 41 % 1023,5 hPa 0,0 l/m 2,2 km/h (1 Bft) N 358 5 min 0,000 mm 3,0 UV-I 780 W/m 14,9 C 29,6 C 4,0 km/h (1 Bft) 0,00 %
29.08.2015 12:48 29,7 C 41 % 1023,1 hPa 0,0 l/m 0,0 km/h (0 Bft) O-SO 104 5 min 0,000 mm 3,0 UV-I 782 W/m 15,0 C 29,7 C 0,0 km/h (0 Bft) 0,00 %
29.08.2015 12:53 29,7 C 41 % 1023,3 hPa 0,0 l/m 4,3 km/h (1 Bft) S-SO 147 5 min 0,000 mm 3,0 UV-I 790 W/m 15,0 C 29,7 C 7,9 km/h (2 Bft) 0,00 %
29.08.2015 12:58 29,7 C 40 % 1023,2 hPa 0,0 l/m 5,8 km/h (2 Bft) O-SO 116 5 min 0,000 mm 3,0 UV-I 796 W/m 14,6 C 29,7 C 7,9 km/h (2 Bft) 0,00 %
29.08.2015 13:03 29,8 C 40 % 1023,2 hPa 0,0 l/m 1,4 km/h (1 Bft) O-SO 111 5 min 0,000 mm 3,0 UV-I 800 W/m 14,7 C 29,8 C 4,0 km/h (1 Bft) 0,00 %
29.08.2015 13:08 29,9 C 39 % 1023,2 hPa 0,0 l/m 0,4 km/h (0 Bft) O 86 5 min 0,000 mm 3,0 UV-I 806 W/m 14,4 C 29,9 C 4,0 km/h (1 Bft) 0,00 %
29.08.2015 13:13 30,1 C 39 % 1023,1 hPa 0,0 l/m 0,0 km/h (0 Bft) O-NO 62 5 min 0,000 mm 3,0 UV-I 812 W/m 14,6 C 30,1 C 0,0 km/h (0 Bft) 0,00 %
29.08.2015 13:18 30,0 C 40 % 1023,1 hPa 0,0 l/m 0,0 km/h (0 Bft) SO 128 5 min 0,000 mm 3,0 UV-I 812 W/m 14,9 C 30,0 C 0,0 km/h (0 Bft) 0,00 %
29.08.2015 13:23 30,0 C 39 % 1023,1 hPa 0,0 l/m 4,7 km/h (1 Bft) SO 124 5 min 0,000 mm 3,0 UV-I 825 W/m 14,5 C 30,0 C 7,9 km/h (2 Bft) 0,00 %
29.08.2015 13:28 30,2 C 39 % 1023,0 hPa 0,0 l/m 0,4 km/h (0 Bft) O-SO 106 5 min 0,000 mm 3,0 UV-I 825 W/m 14,7 C 30,2 C 4,0 km/h (1 Bft) 0,00 %
29.08.2015 13:33 30,4 C 39 % 1023,0 hPa 0,0 l/m 0,4 km/h (0 Bft) O-NO 77 5 min 0,000 mm 3,0 UV-I 832 W/m 14,9 C 30,4 C 4,0 km/h (1 Bft) 0,00 %
29.08.2015 13:38 30,6 C 39 % 1022,9 hPa 0,0 l/m 5,4 km/h (1 Bft) O-SO 110 5 min 0,000 mm 3,0 UV-I 834 W/m 15,0 C 30,6 C 7,9 km/h (2 Bft) 0,00 %
29.08.2015 13:43 30,6 C 39 % 1022,9 hPa 0,0 l/m 5,8 km/h (2 Bft) SO 129 5 min 0,000 mm 3,0 UV-I 831 W/m 15,0 C 30,6 C 7,9 km/h (2 Bft) 0,00 %
29.08.2015 13:48 30,5 C 39 % 1022,9 hPa 0,0 l/m 5,8 km/h (2 Bft) S 177 5 min 0,000 mm 3,0 UV-I 840 W/m 15,0 C 30,5 C 7,9 km/h (2 Bft) 0,00 %
29.08.2015 13:53 30,5 C 39 % 1022,7 hPa 0,0 l/m 0,7 km/h (0 Bft) N 352 5 min 0,000 mm 3,0 UV-I 844 W/m 15,0 C 30,5 C 4,0 km/h (1 Bft) 0,00 %
29.08.2015 13:58 30,6 C 38 % 1022,6 hPa 0,0 l/m 5,4 km/h (1 Bft) O-SO 113 5 min 0,000 mm 3,0 UV-I 846 W/m 14,6 C 30,6 C 7,9 km/h (2 Bft) 0,00 %
29.08.2015 14:03 30,8 C 39 % 1022,5 hPa 0,0 l/m 8,3 km/h (2 Bft) O 91 5 min 0,000 mm 3,0 UV-I 851 W/m 15,2 C 30,7 C 11,9 km/h (2 Bft) 0,00 %
29.08.2015 14:08 30,9 C 38 % 1022,4 hPa 0,0 l/m 5,4 km/h (1 Bft) O 88 5 min 0,000 mm 3,0 UV-I 852 W/m 14,9 C 30,9 C 7,9 km/h (2 Bft) 0,00 %
29.08.2015 14:13 31,0 C 38 % 1022,4 hPa 0,0 l/m 0,0 km/h (0 Bft) NO 36 5 min 0,000 mm 3,0 UV-I 860 W/m 15,0 C 31,0 C 0,0 km/h (0 Bft) 0,00 %
29.08.2015 14:18 31,2 C 36 % 1022,4 hPa 0,0 l/m 3,2 km/h (1 Bft) W-NW 301 5 min 0,000 mm 3,0 UV-I 859 W/m 14,3 C 31,2 C 7,9 km/h (2 Bft) 0,00 %
29.08.2015 14:23 31,2 C 36 % 1022,4 hPa 0,0 l/m 0,0 km/h (0 Bft) N-NO 22 5 min 0,000 mm 3,0 UV-I 860 W/m 14,3 C 31,2 C 0,0 km/h (0 Bft) 0,00 %
29.08.2015 14:28 31,3 C 34 % 1022,3 hPa 0,0 l/m 4,7 km/h (1 Bft) O 85 5 min 0,000 mm 3,0 UV-I 873 W/m 13,5 C 31,3 C 7,9 km/h (2 Bft) 0,00 %
29.08.2015 14:33 31,5 C 35 % 1022,3 hPa 0,0 l/m 0,0 km/h (0 Bft) N-NO 30 5 min 0,000 mm 3,0 UV-I 878 W/m 14,2 C 31,5 C 0,0 km/h (0 Bft) 0,00 %
29.08.2015 14:38 31,6 C 35 % 1022,1 hPa 0,0 l/m 0,4 km/h (0 Bft) NO 42 5 min 0,000 mm 3,0 UV-I 878 W/m 14,2 C 31,6 C 4,0 km/h (1 Bft) 0,00 %
29.08.2015 14:43 31,7 C 34 % 1022,2 hPa 0,0 l/m 2,9 km/h (1 Bft) O 89 5 min 0,000 mm 3,0 UV-I 883 W/m 13,9 C 31,7 C 4,0 km/h (1 Bft) 0,00 %
29.08.2015 14:48 31,9 C 35 % 1021,9 hPa 0,0 l/m 0,4 km/h (0 Bft) O-NO 57 5 min 0,000 mm 3,0 UV-I 886 W/m 14,5 C 31,9 C 4,0 km/h (1 Bft) 0,00 %
29.08.2015 14:53 32,0 C 35 % 1021,9 hPa 0,0 l/m 1,8 km/h (1 Bft) N 349 5 min 0,000 mm 3,0 UV-I 882 W/m 14,6 C 32,0 C 4,0 km/h (1 Bft) 0,00 %
29.08.2015 14:58 32,1 C 35 % 1021,9 hPa 0,0 l/m 0,7 km/h (0 Bft) O 82 5 min 0,000 mm 3,0 UV-I 884 W/m 14,7 C 32,1 C 4,0 km/h (1 Bft) 0,00 %
29.08.2015 15:03 32,1 C 34 % 1021,7 hPa 0,0 l/m 0,4 km/h (0 Bft) O 99 5 min 0,000 mm 3,0 UV-I 878 W/m 14,2 C 32,1 C 4,0 km/h (1 Bft) 0,00 %
29.08.2015 15:08 32,1 C 33 % 1021,9 hPa 0,0 l/m 0,0 km/h (0 Bft) N-NO 33 5 min 0,000 mm 2,0 UV-I 876 W/m 13,8 C 32,1 C 0,0 km/h (0 Bft) 0,00 %
29.08.2015 15:13 32,0 C 35 % 1021,8 hPa 0,0 l/m 7,9 km/h (2 Bft) SO 140 5 min 0,000 mm 1,0 UV-I 878 W/m 14,6 C 32,0 C 11,9 km/h (2 Bft) 0,00 %
29.08.2015 15:18 31,8 C 34 % 1021,7 hPa 0,0 l/m 5,8 km/h (2 Bft) SO 141 5 min 0,000 mm 1,0 UV-I 869 W/m 14,0 C 31,8 C 7,9 km/h (2 Bft) 0,00 %
29.08.2015 15:23 31,7 C 34 % 1021,6 hPa 0,0 l/m 0,7 km/h (0 Bft) O-SO 112 5 min 0,000 mm 1,0 UV-I 864 W/m 13,9 C 31,7 C 4,0 km/h (1 Bft) 0,00 %
29.08.2015 15:28 31,8 C 35 % 1021,5 hPa 0,0 l/m 0,7 km/h (0 Bft) NO 45 5 min 0,000 mm 1,0 UV-I 862 W/m 14,4 C 31,8 C 4,0 km/h (1 Bft) 0,00 %
29.08.2015 15:33 31,9 C 35 % 1021,4 hPa 0,0 l/m 0,4 km/h (0 Bft) NO 44 5 min 0,000 mm 1,0 UV-I 861 W/m 14,5 C 31,9 C 4,0 km/h (1 Bft) 0,00 %
29.08.2015 15:38 32,0 C 35 % 1021,5 hPa 0,0 l/m 9,0 km/h (2 Bft) O-SO 116 5 min 0,000 mm 1,0 UV-I 857 W/m 14,6 C 31,9 C 11,9 km/h (2 Bft) 0,00 %
29.08.2015 15:43 31,9 C 35 % 1021,1 hPa 0,0 l/m 0,4 km/h (0 Bft) O 94 5 min 0,000 mm 1,0 UV-I 842 W/m 14,5 C 31,9 C 4,0 km/h (1 Bft) 0,00 %
29.08.2015 15:48 31,8 C 35 % 1021,4 hPa 0,0 l/m 4,7 km/h (1 Bft) O-SO 121 5 min 0,000 mm 1,0 UV-I 852 W/m 14,4 C 31,8 C 7,9 km/h (2 Bft) 0,00 %
29.08.2015 15:53 31,7 C 35 % 1021,2 hPa 0,0 l/m 0,0 km/h (0 Bft) NO 37 5 min 0,000 mm 1,0 UV-I 838 W/m 14,3 C 31,7 C 0,0 km/h (0 Bft) 0,00 %
29.08.2015 15:58 31,6 C 35 % 1021,1 hPa 0,0 l/m 4,3 km/h (1 Bft) O 96 5 min 0,000 mm 1,0 UV-I 831 W/m 14,2 C 31,6 C 7,9 km/h (2 Bft) 0,00 %
29.08.2015 16:03 31,6 C 34 % 1020,8 hPa 0,0 l/m 5,8 km/h (2 Bft) SO 131 5 min 0,000 mm 1,0 UV-I 829 W/m 13,8 C 31,6 C 7,9 km/h (2 Bft) 0,00 %
29.08.2015 16:08 31,6 C 35 % 1021,0 hPa 0,0 l/m 4,3 km/h (1 Bft) O-SO 107 5 min 0,000 mm 1,0 UV-I 823 W/m 14,2 C 31,6 C 7,9 km/h (2 Bft) 0,00 %
29.08.2015 16:13 31,6 C 35 % 1021,0 hPa 0,0 l/m 0,0 km/h (0 Bft) N 349 5 min 0,000 mm 1,0 UV-I 780 W/m 14,2 C 31,6 C 0,0 km/h (0 Bft) 0,00 %
29.08.2015 16:18 31,7 C 34 % 1021,2 hPa 0,0 l/m 9,4 km/h (2 Bft) O-SO 105 5 min 0,000 mm 1,0 UV-I 382 W/m 13,9 C 31,6 C 11,9 km/h (2 Bft) 0,00 %
29.08.2015 16:23 31,6 C 35 % 1021,0 hPa 0,0 l/m 6,5 km/h (2 Bft) SO 141 0 min 0,000 mm 1,0 UV-I 147 W/m 14,2 C 31,6 C 11,9 km/h (2 Bft) 0,00 %
29.08.2015 16:28 31,5 C 35 % 1021,1 hPa 0,0 l/m 7,2 km/h (2 Bft) SO 134 0 min 0,000 mm 1,0 UV-I 145 W/m 14,2 C 31,5 C 7,9 km/h (2 Bft) 0,00 %
29.08.2015 16:33 31,4 C 35 % 1021,1 hPa 0,0 l/m 3,2 km/h (1 Bft) O 80 0 min 0,000 mm 1,0 UV-I 145 W/m 14,1 C 31,4 C 4,0 km/h (1 Bft) 0,00 %
29.08.2015 16:38 31,3 C 34 % 1020,6 hPa 0,0 l/m 0,0 km/h (0 Bft) O-NO 78 0 min 0,000 mm 1,0 UV-I 144 W/m 13,5 C 31,3 C 0,0 km/h (0 Bft) 0,00 %
29.08.2015 16:43 31,3 C 35 % 1020,5 hPa 0,0 l/m 0,0 km/h (0 Bft) O-NO 63 0 min 0,000 mm 1,0 UV-I 144 W/m 14,0 C 31,3 C 0,0 km/h (0 Bft) 0,00 %
29.08.2015 16:48 31,3 C 35 % 1020,6 hPa 0,0 l/m 0,0 km/h (0 Bft) NO 39 0 min 0,000 mm 1,0 UV-I 144 W/m 14,0 C 31,3 C 0,0 km/h (0 Bft) 0,00 %
29.08.2015 16:53 31,3 C 34 % 1020,5 hPa 0,0 l/m 2,2 km/h (1 Bft) N 352 0 min 0,000 mm 1,0 UV-I 146 W/m 13,5 C 31,3 C 4,0 km/h (1 Bft) 0,00 %
29.08.2015 16:58 31,4 C 34 % 1020,2 hPa 0,0 l/m 7,2 km/h (2 Bft) O-SO 110 0 min 0,000 mm 1,0 UV-I 157 W/m 13,6 C 31,4 C 11,9 km/h (2 Bft) 0,00 %
29.08.2015 17:03 31,5 C 33 % 1020,7 hPa 0,0 l/m 0,0 km/h (0 Bft) O 87 0 min 0,000 mm 1,0 UV-I 159 W/m 13,2 C 31,5 C 0,0 km/h (0 Bft) 0,00 %
29.08.2015 17:08 31,5 C 35 % 1020,5 hPa 0,0 l/m 5,4 km/h (1 Bft) SO 124 5 min 0,000 mm 1,0 UV-I 426 W/m 14,2 C 31,5 C 7,9 km/h (2 Bft) 0,00 %
29.08.2015 17:13 31,5 C 33 % 1020,5 hPa 0,0 l/m 2,2 km/h (1 Bft) S 170 5 min 0,000 mm 1,0 UV-I 717 W/m 13,2 C 31,5 C 4,0 km/h (1 Bft) 0,00 %
29.08.2015 17:18 31,6 C 33 % 1020,6 hPa 0,0 l/m 1,8 km/h (1 Bft) O 85 5 min 0,000 mm 1,0 UV-I 721 W/m 13,3 C 31,6 C 4,0 km/h (1 Bft) 0,00 %
29.08.2015 17:23 31,9 C 35 % 1020,4 hPa 0,0 l/m 0,4 km/h (0 Bft) O 93 5 min 0,000 mm 1,0 UV-I 720 W/m 14,5 C 31,9 C 4,0 km/h (1 Bft) 0,00 %
29.08.2015 17:28 32,1 C 34 % 1020,4 hPa 0,0 l/m 5,4 km/h (1 Bft) NO 52 5 min 0,000 mm 1,0 UV-I 714 W/m 14,2 C 32,1 C 7,9 km/h (2 Bft) 0,00 %
29.08.2015 17:33 32,3 C 35 % 1020,5 hPa 0,0 l/m 8,3 km/h (2 Bft) SO 141 5 min 0,000 mm 1,0 UV-I 699 W/m 14,9 C 32,3 C 11,9 km/h (2 Bft) 0,00 %
29.08.2015 17:38 32,2 C 35 % 1020,4 hPa 0,0 l/m 0,7 km/h (0 Bft) NO 34 5 min 0,000 mm 1,0 UV-I 681 W/m 14,8 C 32,2 C 4,0 km/h (1 Bft) 0,00 %
29.08.2015 17:43 32,1 C 35 % 1020,3 hPa 0,0 l/m 4,0 km/h (1 Bft) O-NO 76 5 min 0,000 mm 1,0 UV-I 669 W/m 14,7 C 32,1 C 7,9 km/h (2 Bft) 0,00 %
29.08.2015 17:48 32,1 C 35 % 1020,2 hPa 0,0 l/m 6,8 km/h (2 Bft) SO 125 5 min 0,000 mm 1,0 UV-I 653 W/m 14,7 C 32,1 C 11,9 km/h (2 Bft) 0,00 %
29.08.2015 17:53 31,9 C 34 % 1020,1 hPa 0,0 l/m 6,5 km/h (2 Bft) O-SO 118 5 min 0,000 mm 1,0 UV-I 637 W/m 14,1 C 31,9 C 11,9 km/h (2 Bft) 0,00 %
29.08.2015 17:58 31,7 C 35 % 1020,2 hPa 0,0 l/m 7,2 km/h (2 Bft) SO 137 5 min 0,000 mm 1,0 UV-I 619 W/m 14,3 C 31,7 C 11,9 km/h (2 Bft) 0,00 %
29.08.2015 18:03 31,5 C 36 % 1020,1 hPa 0,0 l/m 4,7 km/h (1 Bft) O-SO 105 5 min 0,000 mm 1,0 UV-I 602 W/m 14,6 C 31,5 C 7,9 km/h (2 Bft) 0,00 %
29.08.2015 18:08 31,3 C 35 % 1020,0 hPa 0,0 l/m 6,8 km/h (2 Bft) SO 124 5 min 0,000 mm 1,0 UV-I 583 W/m 14,0 C 31,3 C 11,9 km/h (2 Bft) 0,00 %
29.08.2015 18:13 31,3 C 36 % 1020,0 hPa 0,0 l/m 1,8 km/h (1 Bft) O 95 5 min 0,000 mm 1,0 UV-I 564 W/m 14,4 C 31,3 C 4,0 km/h (1 Bft) 0,00 %
29.08.2015 18:18 31,2 C 37 % 1019,9 hPa 0,0 l/m 5,4 km/h (1 Bft) O-SO 106 5 min 0,000 mm 1,0 UV-I 546 W/m 14,8 C 31,2 C 7,9 km/h (2 Bft) 0,00 %
29.08.2015 18:23 31,1 C 38 % 1020,0 hPa 0,0 l/m 4,3 km/h (1 Bft) S-SO 163 5 min 0,000 mm 1,0 UV-I 515 W/m 15,1 C 31,1 C 7,9 km/h (2 Bft) 0,00 %
29.08.2015 18:28 31,0 C 39 % 1019,9 hPa 0,0 l/m 2,2 km/h (1 Bft) O 83 5 min 0,000 mm 1,0 UV-I 489 W/m 15,4 C 31,0 C 4,0 km/h (1 Bft) 0,00 %
29.08.2015 18:33 30,9 C 39 % 1019,6 hPa 0,0 l/m 6,8 km/h (2 Bft) O-SO 119 5 min 0,000 mm 1,0 UV-I 463 W/m 15,3 C 30,9 C 7,9 km/h (2 Bft) 0,00 %
29.08.2015 18:38 30,8 C 39 % 1019,8 hPa 0,0 l/m 4,0 km/h (1 Bft) NW 311 5 min 0,000 mm 1,0 UV-I 443 W/m 15,2 C 30,8 C 7,9 km/h (2 Bft) 0,00 %
29.08.2015 18:43 30,7 C 39 % 1019,8 hPa 0,0 l/m 4,7 km/h (1 Bft) O-SO 107 5 min 0,000 mm 0,0 UV-I 404 W/m 15,1 C 30,7 C 7,9 km/h (2 Bft) 0,00 %
29.08.2015 18:48 30,7 C 40 % 1019,7 hPa 0,0 l/m 5,4 km/h (1 Bft) O-NO 72 5 min 0,000 mm 0,0 UV-I 373 W/m 15,5 C 30,7 C 7,9 km/h (2 Bft) 0,00 %
29.08.2015 18:53 30,5 C 40 % 1019,8 hPa 0,0 l/m 5,8 km/h (2 Bft) O 99 5 min 0,000 mm 0,0 UV-I 330 W/m 15,3 C 30,5 C 7,9 km/h (2 Bft) 0,00 %
29.08.2015 18:58 30,3 C 41 % 1019,7 hPa 0,0 l/m 3,2 km/h (1 Bft) O 86 5 min 0,000 mm 0,0 UV-I 295 W/m 15,6 C 30,3 C 7,9 km/h (2 Bft) 0,00 %
29.08.2015 19:03 30,2 C 42 % 1019,7 hPa 0,0 l/m 2,9 km/h (1 Bft) NO 56 5 min 0,000 mm 0,0 UV-I 258 W/m 15,8 C 30,2 C 4,0 km/h (1 Bft) 0,00 %
29.08.2015 19:08 30,0 C 44 % 1019,8 hPa 0,0 l/m 8,3 km/h (2 Bft) O-SO 114 5 min 0,000 mm 0,0 UV-I 219 W/m 16,4 C 29,8 C 11,9 km/h (2 Bft) 0,00 %
29.08.2015 19:13 29,9 C 44 % 1019,7 hPa 0,0 l/m 3,2 km/h (1 Bft) O-SO 120 5 min 0,000 mm 0,0 UV-I 182 W/m 16,3 C 29,9 C 7,9 km/h (2 Bft) 0,00 %
29.08.2015 19:18 29,7 C 45 % 1019,7 hPa 0,0 l/m 5,4 km/h (1 Bft) O-SO 117 5 min 0,000 mm 0,0 UV-I 143 W/m 16,5 C 29,7 C 7,9 km/h (2 Bft) 0,00 %
29.08.2015 19:23 29,5 C 45 % 1019,8 hPa 0,0 l/m 9,4 km/h (2 Bft) SO 125 5 min 0,000 mm 0,0 UV-I 50 W/m 16,3 C 29,2 C 11,9 km/h (2 Bft) 0,00 %
29.08.2015 19:28 29,2 C 46 % 1019,8 hPa 0,0 l/m 2,9 km/h (1 Bft) O-NO 65 5 min 0,000 mm 0,0 UV-I 39 W/m 16,4 C 29,2 C 4,0 km/h (1 Bft) 0,00 %
29.08.2015 19:33 29,0 C 48 % 1019,7 hPa 0,0 l/m 2,9 km/h (1 Bft) O-NO 71 5 min 0,000 mm 0,0 UV-I 30 W/m 16,9 C 29,0 C 4,0 km/h (1 Bft) 0,00 %
29.08.2015 19:38 28,8 C 49 % 1019,8 hPa 0,0 l/m 5,4 km/h (1 Bft) SO 124 5 min 0,000 mm 0,0 UV-I 21 W/m 17,0 C 28,8 C 7,9 km/h (2 Bft) 0,00 %
29.08.2015 19:43 28,5 C 50 % 1019,8 hPa 0,0 l/m 2,2 km/h (1 Bft) O 94 0 min 0,000 mm 0,0 UV-I 11 W/m 17,0 C 28,5 C 4,0 km/h (1 Bft) 0,00 %
29.08.2015 19:48 28,2 C 51 % 1019,9 hPa 0,0 l/m 0,7 km/h (0 Bft) N 352 0 min 0,000 mm 0,0 UV-I 5 W/m 17,1 C 28,2 C 4,0 km/h (1 Bft) 0,00 %
29.08.2015 19:53 28,0 C 52 % 1019,7 hPa 0,0 l/m 0,4 km/h (0 Bft) O 99 0 min 0,000 mm 0,0 UV-I 0 W/m 17,2 C 28,0 C 4,0 km/h (1 Bft) 0,00 %
29.08.2015 19:58 27,9 C 52 % 1019,7 hPa 0,0 l/m 4,7 km/h (1 Bft) O-NO 62 0 min 0,000 mm 0,0 UV-I 0 W/m 17,1 C 27,9 C 11,9 km/h (2 Bft) 0,00 %
29.08.2015 20:03 27,7 C 52 % 1019,7 hPa 0,0 l/m 0,0 km/h (0 Bft) O 95 0 min 0,000 mm 0,0 UV-I 0 W/m 16,9 C 27,7 C 0,0 km/h (0 Bft) 0,00 %
29.08.2015 20:08 27,6 C 52 % 1019,4 hPa 0,0 l/m 5,8 km/h (2 Bft) O 94 0 min 0,000 mm 0,0 UV-I 0 W/m 16,8 C 27,6 C 7,9 km/h (2 Bft) 0,00 %
29.08.2015 20:13 27,5 C 52 % 1019,7 hPa 0,0 l/m 0,0 km/h (0 Bft) N-NO 30 0 min 0,000 mm 0,0 UV-I 0 W/m 16,7 C 27,5 C 0,0 km/h (0 Bft) 0,00 %
29.08.2015 20:18 27,3 C 52 % 1019,7 hPa 0,0 l/m 0,4 km/h (0 Bft) O 99 0 min 0,000 mm 0,0 UV-I 0 W/m 16,6 C 27,3 C 4,0 km/h (1 Bft) 0,00 %
29.08.2015 20:23 27,1 C 53 % 1019,9 hPa 0,0 l/m 3,2 km/h (1 Bft) O-NO 72 0 min 0,000 mm 0,0 UV-I 0 W/m 16,7 C 27,1 C 4,0 km/h (1 Bft) 0,00 %
29.08.2015 20:28 26,9 C 53 % 1020,0 hPa 0,0 l/m 0,0 km/h (0 Bft) NO 47 0 min 0,000 mm 0,0 UV-I 0 W/m 16,5 C 26,9 C 0,0 km/h (0 Bft) 0,00 %
29.08.2015 20:33 26,7 C 54 % 1020,0 hPa 0,0 l/m 0,0 km/h (0 Bft) O-NO 66 0 min 0,000 mm 0,0 UV-I 0 W/m 16,6 C 26,7 C 0,0 km/h (0 Bft) 0,00 %
29.08.2015 20:38 26,5 C 55 % 1019,9 hPa 0,0 l/m 0,0 km/h (0 Bft) O-NO 64 0 min 0,000 mm 0,0 UV-I 0 W/m 16,7 C 26,5 C 0,0 km/h (0 Bft) 0,00 %
29.08.2015 20:43 26,2 C 56 % 1020,0 hPa 0,0 l/m 0,0 km/h (0 Bft) O 96 0 min 0,000 mm 0,0 UV-I 0 W/m 16,7 C 26,2 C 0,0 km/h (0 Bft) 0,00 %
29.08.2015 20:48 26,0 C 58 % 1020,1 hPa 0,0 l/m 0,0 km/h (0 Bft) O-SO 116 0 min 0,000 mm 0,0 UV-I 0 W/m 17,1 C 26,0 C 0,0 km/h (0 Bft) 0,00 %
29.08.2015 20:53 25,7 C 59 % 1019,8 hPa 0,0 l/m 0,0 km/h (0 Bft) O 100 0 min 0,000 mm 0,0 UV-I 0 W/m 17,1 C 25,7 C 0,0 km/h (0 Bft) 0,00 %
29.08.2015 20:58 25,5 C 59 % 1019,8 hPa 0,0 l/m 1,4 km/h (1 Bft) O 97 0 min 0,000 mm 0,0 UV-I 0 W/m 16,9 C 25,5 C 4,0 km/h (1 Bft) 0,00 %
29.08.2015 21:03 25,4 C 59 % 1019,9 hPa 0,0 l/m 3,2 km/h (1 Bft) O 91 0 min 0,000 mm 0,0 UV-I 0 W/m 16,8 C 25,4 C 7,9 km/h (2 Bft) 0,00 %
29.08.2015 21:08 25,5 C 58 % 1019,9 hPa 0,0 l/m 0,0 km/h (0 Bft) NO 45 0 min 0,000 mm 0,0 UV-I 0 W/m 16,6 C 25,5 C 0,0 km/h (0 Bft) 0,00 %
29.08.2015 21:13 25,6 C 57 % 1019,8 hPa 0,0 l/m 5,8 km/h (2 Bft) O 96 0 min 0,000 mm 0,0 UV-I 0 W/m 16,4 C 25,6 C 7,9 km/h (2 Bft) 0,00 %
29.08.2015 21:18 25,8 C 56 % 1020,1 hPa 0,0 l/m 1,4 km/h (1 Bft) O-NO 77 0 min 0,000 mm 0,0 UV-I 0 W/m 16,3 C 25,8 C 4,0 km/h (1 Bft) 0,00 %
29.08.2015 21:23 25,8 C 56 % 1020,1 hPa 0,0 l/m 3,2 km/h (1 Bft) O 79 0 min 0,000 mm 0,0 UV-I 0 W/m 16,3 C 25,8 C 7,9 km/h (2 Bft) 0,00 %
29.08.2015 21:28 25,9 C 56 % 1019,9 hPa 0,0 l/m 8,3 km/h (2 Bft) O 99 0 min 0,000 mm 0,0 UV-I 0 W/m 16,4 C 25,5 C 11,9 km/h (2 Bft) 0,00 %
29.08.2015 21:33 25,9 C 56 % 1020,1 hPa 0,0 l/m 6,8 km/h (2 Bft) O-SO 106 0 min 0,000 mm 0,0 UV-I 0 W/m 16,4 C 25,8 C 7,9 km/h (2 Bft) 0,00 %
29.08.2015 21:38 25,8 C 56 % 1019,9 hPa 0,0 l/m 4,0 km/h (1 Bft) S-SO 150 0 min 0,000 mm 0,0 UV-I 0 W/m 16,3 C 25,8 C 7,9 km/h (2 Bft) 0,00 %
29.08.2015 21:43 25,8 C 56 % 1019,8 hPa 0,0 l/m 2,9 km/h (1 Bft) O-NO 63 0 min 0,000 mm 0,0 UV-I 0 W/m 16,3 C 25,8 C 7,9 km/h (2 Bft) 0,00 %
29.08.2015 21:48 25,8 C 56 % 1019,9 hPa 0,0 l/m 0,0 km/h (0 Bft) O-NO 63 0 min 0,000 mm 0,0 UV-I 0 W/m 16,3 C 25,8 C 0,0 km/h (0 Bft) 0,00 %
29.08.2015 21:53 25,7 C 57 % 1019,9 hPa 0,0 l/m 8,3 km/h (2 Bft) O-SO 122 0 min 0,000 mm 0,0 UV-I 0 W/m 16,5 C 25,3 C 11,9 km/h (2 Bft) 0,00 %
29.08.2015 21:58 25,6 C 57 % 1019,7 hPa 0,0 l/m 1,4 km/h (1 Bft) W-NW 301 0 min 0,000 mm 0,0 UV-I 0 W/m 16,4 C 25,6 C 4,0 km/h (1 Bft) 0,00 %
29.08.2015 22:03 25,5 C 57 % 1019,7 hPa 0,0 l/m 0,7 km/h (0 Bft) O 90 0 min 0,000 mm 0,0 UV-I 0 W/m 16,3 C 25,5 C 4,0 km/h (1 Bft) 0,00 %
29.08.2015 22:08 25,4 C 58 % 1019,8 hPa 0,0 l/m 4,7 km/h (1 Bft) O 81 0 min 0,000 mm 0,0 UV-I 0 W/m 16,5 C 25,4 C 7,9 km/h (2 Bft) 0,00 %
29.08.2015 22:13 25,3 C 58 % 1019,8 hPa 0,0 l/m 0,7 km/h (0 Bft) S 176 0 min 0,000 mm 0,0 UV-I 0 W/m 16,4 C 25,3 C 4,0 km/h (1 Bft) 0,00 %
29.08.2015 22:18 25,1 C 58 % 1019,9 hPa 0,0 l/m 3,2 km/h (1 Bft) SO 132 0 min 0,000 mm 0,0 UV-I 0 W/m 16,2 C 25,1 C 4,0 km/h (1 Bft) 0,00 %
29.08.2015 22:23 25,1 C 58 % 1019,7 hPa 0,0 l/m 0,4 km/h (0 Bft) NO 38 0 min 0,000 mm 0,0 UV-I 0 W/m 16,2 C 25,1 C 4,0 km/h (1 Bft) 0,00 %
29.08.2015 22:28 25,0 C 59 % 1019,6 hPa 0,0 l/m 4,3 km/h (1 Bft) SO 144 0 min 0,000 mm 0,0 UV-I 0 W/m 16,4 C 25,0 C 7,9 km/h (2 Bft) 0,00 %
29.08.2015 22:33 24,9 C 60 % 1019,7 hPa 0,0 l/m 1,8 km/h (1 Bft) O 96 0 min 0,000 mm 0,0 UV-I 0 W/m 16,6 C 24,9 C 4,0 km/h (1 Bft) 0,00 %
29.08.2015 22:38 24,8 C 60 % 1019,8 hPa 0,0 l/m 0,0 km/h (0 Bft) O-NO 60 0 min 0,000 mm 0,0 UV-I 0 W/m 16,5 C 24,8 C 0,0 km/h (0 Bft) 0,00 %
29.08.2015 22:43 24,6 C 60 % 1019,7 hPa 0,0 l/m 0,7 km/h (0 Bft) O 92 0 min 0,000 mm 0,0 UV-I 0 W/m 16,3 C 24,6 C 4,0 km/h (1 Bft) 0,00 %
29.08.2015 22:48 24,5 C 61 % 1019,6 hPa 0,0 l/m 0,0 km/h (0 Bft) NO 47 0 min 0,000 mm 0,0 UV-I 0 W/m 16,5 C 24,5 C 0,0 km/h (0 Bft) 0,00 %
29.08.2015 22:53 24,3 C 61 % 1019,7 hPa 0,0 l/m 0,0 km/h (0 Bft) O-SO 117 0 min 0,000 mm 0,0 UV-I 0 W/m 16,3 C 24,3 C 0,0 km/h (0 Bft) 0,00 %
29.08.2015 22:58 24,1 C 63 % 1019,5 hPa 0,0 l/m 0,0 km/h (0 Bft) O-NO 74 0 min 0,000 mm 0,0 UV-I 0 W/m 16,6 C 24,1 C 0,0 km/h (0 Bft) 0,00 %
29.08.2015 23:03 23,9 C 64 % 1019,5 hPa 0,0 l/m 0,0 km/h (0 Bft) O-NO 66 0 min 0,000 mm 0,0 UV-I 0 W/m 16,7 C 23,9 C 0,0 km/h (0 Bft) 0,00 %
29.08.2015 23:08 23,6 C 65 % 1019,7 hPa 0,0 l/m 0,0 km/h (0 Bft) O-SO 106 0 min 0,000 mm 0,0 UV-I 0 W/m 16,6 C 23,6 C 0,0 km/h (0 Bft) 0,00 %
29.08.2015 23:13 23,2 C 65 % 1019,5 hPa 0,0 l/m 0,0 km/h (0 Bft) O 84 0 min 0,000 mm 0,0 UV-I 0 W/m 16,2 C 23,2 C 0,0 km/h (0 Bft) 0,00 %
29.08.2015 23:18 22,9 C 67 % 1019,7 hPa 0,0 l/m 0,0 km/h (0 Bft) NO 50 0 min 0,000 mm 0,0 UV-I 0 W/m 16,4 C 22,9 C 0,0 km/h (0 Bft) 0,00 %
29.08.2015 23:23 22,8 C 67 % 1019,6 hPa 0,0 l/m 0,0 km/h (0 Bft) O 91 0 min 0,000 mm 0,0 UV-I 0 W/m 16,3 C 22,8 C 0,0 km/h (0 Bft) 0,00 %
29.08.2015 23:28 22,7 C 68 % 1019,6 hPa 0,0 l/m 0,0 km/h (0 Bft) O 84 0 min 0,000 mm 0,0 UV-I 0 W/m 16,5 C 22,7 C 0,0 km/h (0 Bft) 0,00 %
29.08.2015 23:33 22,6 C 68 % 1019,5 hPa 0,0 l/m 0,0 km/h (0 Bft) O-NO 60 0 min 0,000 mm 0,0 UV-I 0 W/m 16,4 C 22,6 C 0,0 km/h (0 Bft) 0,00 %
29.08.2015 23:38 22,5 C 69 % 1019,6 hPa 0,0 l/m 0,0 km/h (0 Bft) O-NO 58 0 min 0,000 mm 0,0 UV-I 0 W/m 16,5 C 22,5 C 0,0 km/h (0 Bft) 0,00 %
29.08.2015 23:43 22,3 C 69 % 1019,5 hPa 0,0 l/m 0,0 km/h (0 Bft) O-NO 71 0 min 0,000 mm 0,0 UV-I 0 W/m 16,3 C 22,3 C 0,0 km/h (0 Bft) 0,00 %
29.08.2015 23:48 22,1 C 69 % 1019,6 hPa 0,0 l/m 0,0 km/h (0 Bft) O-NO 65 0 min 0,000 mm 0,0 UV-I 0 W/m 16,1 C 22,1 C 0,0 km/h (0 Bft) 0,00 %
29.08.2015 23:53 22,0 C 69 % 1019,5 hPa 0,0 l/m 0,0 km/h (0 Bft) O 81 0 min 0,000 mm 0,0 UV-I 0 W/m 16,0 C 22,0 C 0,0 km/h (0 Bft) 0,00 %
29.08.2015 23:58 21,9 C 69 % 1019,6 hPa 0,0 l/m 0,0 km/h (0 Bft) O-NO 64 0 min 0,000 mm 0,0 UV-I 0 W/m 15,9 C 21,9 C 0,0 km/h (0 Bft) 0,00 %
_ Min-Zeit 06:02 15:08 20:08 - 00:02 - - - - - - 06:02 06:02 00:02 00:02
Minimum _ 15,0 C 33 % 1019,4 hPa - 0,0 km/h (0 Bft) - - - - - - 12,9 C 15,0 C 0,0 km/h (0 Bft) 0,00 %
_ Max-Zeit 17:33 06:12 09:12 00:02 16:18 - - 11:38 00:02 11:27 14:48 19:53 17:33 14:03 00:02
Maximum _ 32,3 C 89 % 1024,4 hPa 0,0 l/m 9,4 km/h
O-SO (2 Bft)
- - 6 min 0,000 mm 3,0 UV-I 886 W/m 17,2 C 32,3 C 11,9 km/h
O (2 Bft)
0,00 %
Durchschnitt _ 24,6 C 57 % 1021,8 hPa #0,0 l/m 1,6 km/h (1 Bft) O - #10:21 h #0,000 mm 1,8 UV-I 476 W/m 14,5 C 24,6 C 2,9 km/h (1 Bft) 0,00 %